Time;durP1;ratioP1;P1;durP2;ratioP2;P2;SDS_P1;SDS_P2;PMS_P1;PMS_P2;Temp;Humidity;BMP_temperature;BMP_pressure;BME280_temperature;BME280_humidity;BME280_pressure;Samples;Min_cycle;Max_cycle;Signal;HPM_P1;HPM_P2
2022/07/17 00:00:45;;;;;;;;;;;;;;;22.68;61.20;99950.28;5053266;28;20361;-51
2022/07/17 00:03:14;;;;;;;;;;;;;;;22.67;60.43;99945.13;5053347;28;20320;-50
2022/07/17 00:05:40;;;;;;;;;;;;;;;22.87;60.92;99946.41;5051161;28;20431;-48
2022/07/17 00:08:06;;;;;;;;;;;;;;;22.79;60.59;99949.56;5053853;28;19912;-48
2022/07/17 00:10:31;;;;;;;;;;;;;;;22.54;62.03;99945.97;5052414;28;20325;-50
2022/07/17 00:12:57;;;;;;;;;;;;;;;22.86;61.26;99950.84;5053294;28;19916;-50
2022/07/17 00:15:22;;;;;;;;;;;;;;;22.63;60.91;99946.31;5052855;28;19989;-49
2022/07/17 00:17:47;;;;;;;;;;;;;;;22.87;61.29;99949.03;5053370;28;20410;-52
2022/07/17 00:20:12;;;;;;;;;;;;;;;22.72;61.52;99943.06;5052371;28;20765;-51
2022/07/17 00:22:37;;;;;;;;;;;;;;;22.44;61.73;99955.41;5053338;28;19920;-49
2022/07/17 00:25:03;;;;;;;;;;;;;;;22.47;62.78;99944.69;5053668;28;19920;-48
2022/07/17 00:27:29;;;;;;;;;;;;;;;22.54;63.19;99943.34;5052830;28;20480;-48
2022/07/17 00:29:54;;;;;;;;;;;;;;;22.53;63.39;99949.53;5051815;28;20000;-49
2022/07/17 00:32:19;;;;;;;;;;;;;;;22.51;63.31;99951.44;5053336;28;20282;-51
2022/07/17 00:34:45;;;;;;;;;;;;;;;22.45;64.53;99949.19;5051705;28;19973;-52
2022/07/17 00:37:10;;;;;;;;;;;;;;;22.47;64.88;99955.19;5053665;28;20373;-52
2022/07/17 00:39:35;;;;;;;;;;;;;;;22.31;64.61;99950.13;5052929;28;20006;-51
2022/07/17 00:42:00;;;;;;;;;;;;;;;22.32;65.14;99957.03;5052993;28;20038;-52
2022/07/17 00:44:26;;;;;;;;;;;;;;;21.34;69.15;99967.59;5053318;28;20408;-48
2022/07/17 00:46:51;;;;;;;;;;;;;;;21.70;69.73;99959.28;5053187;28;20873;-53
2022/07/17 00:49:17;;;;;;;;;;;;;;;22.00;68.59;99953.00;5052857;28;20642;-50
2022/07/17 00:51:42;;;;;;;;;;;;;;;21.68;68.43;99956.72;5053218;28;19916;-51
2022/07/17 00:54:07;;;;;;;;;;;;;;;21.24;70.91;99957.69;5052598;28;19912;-51
2022/07/17 00:56:32;;;;;;;;;;;;;;;21.31;71.89;99956.38;5051908;28;19916;-49
2022/07/17 00:58:58;;;;;;;;;;;;;;;21.66;70.02;99942.03;5051878;28;19920;-49
2022/07/17 01:01:23;;;;;;;;;;;;;;;21.55;71.24;99945.31;5053666;28;19963;-51
2022/07/17 01:03:48;;;;;;;;;;;;;;;20.82;73.79;99954.09;5056191;28;19932;-48
2022/07/17 01:06:13;;;;;;;;;;;;;;;20.40;76.08;99955.63;5056598;28;19924;-52
2022/07/17 01:08:39;;;;;;;;;;;;;;;20.87;75.84;99953.84;5056452;28;19999;-48
2022/07/17 01:11:04;;;;;;;;;;;;;;;21.15;74.52;99947.75;5056238;28;20417;-52
2022/07/17 01:13:30;;;;;;;;;;;;;;;21.47;72.97;99948.44;5055571;28;19916;-50
2022/07/17 01:15:55;;;;;;;;;;;;;;;21.50;72.96;99948.22;5056854;28;20374;-47
2022/07/17 01:18:20;;;;;;;;;;;;;;;21.30;72.91;99954.69;5056437;28;20471;-49
2022/07/17 01:20:47;;;;;;;;;;;;;;;21.32;73.50;99959.81;5055081;28;19951;-48
2022/07/17 01:23:12;;;;;;;;;;;;;;;21.26;73.56;99961.06;5056360;28;19924;-50
2022/07/17 01:25:38;;;;;;;;;;;;;;;21.19;73.65;99959.75;5055854;28;19920;-50
2022/07/17 01:28:03;;;;;;;;;;;;;;;20.98;75.10;99961.88;5056255;28;19921;-50
2022/07/17 01:30:29;;;;;;;;;;;;;;;20.82;76.40;99968.94;5056123;28;20674;-51
2022/07/17 01:32:54;;;;;;;;;;;;;;;20.89;75.68;99971.13;5055792;28;19916;-50
2022/07/17 01:35:20;;;;;;;;;;;;;;;20.93;76.42;99973.56;5055951;28;20349;-49
2022/07/17 01:37:45;;;;;;;;;;;;;;;21.19;75.07;99969.34;5056049;28;20262;-48
2022/07/17 01:40:12;;;;;;;;;;;;;;;21.26;74.66;99971.53;5055321;28;19923;-47
2022/07/17 01:42:38;;;;;;;;;;;;;;;21.05;74.84;99973.69;5055941;28;20590;-50
2022/07/17 01:45:03;;;;;;;;;;;;;;;20.85;75.82;99969.63;5056418;28;19920;-51
2022/07/17 01:47:28;;;;;;;;;;;;;;;20.75;76.46;99965.84;5055491;28;21410;-50
2022/07/17 01:49:54;;;;;;;;;;;;;;;20.59;77.05;99967.69;5055237;28;20750;-49
2022/07/17 01:52:19;;;;;;;;;;;;;;;21.01;76.49;99966.09;5055240;28;20059;-49
2022/07/17 01:54:45;;;;;;;;;;;;;;;20.97;76.41;99960.19;5055424;28;20139;-49
2022/07/17 01:57:11;;;;;;;;;;;;;;;21.08;76.44;99959.56;5055753;28;20486;-51
2022/07/17 01:59:36;;;;;;;;;;;;;;;20.86;77.14;99952.97;5055051;28;19927;-51
2022/07/17 02:02:04;;;;;;;;;;;;;;;21.01;77.03;99955.63;5054856;28;20231;-48
2022/07/17 02:04:30;;;;;;;;;;;;;;;20.87;77.91;99959.06;5055428;28;19974;-48
2022/07/17 02:06:55;;;;;;;;;;;;;;;20.75;77.19;99955.38;5054958;28;19991;-48
2022/07/17 02:09:21;;;;;;;;;;;;;;;20.61;78.80;99957.97;5055229;28;19916;-47
2022/07/17 02:11:46;;;;;;;;;;;;;;;20.70;78.18;99957.44;5054820;28;19921;-51
2022/07/17 02:14:11;;;;;;;;;;;;;;;20.44;78.57;99957.13;5055307;28;20464;-49
2022/07/17 02:16:36;;;;;;;;;;;;;;;20.48;79.95;99956.03;5055527;28;19916;-49
2022/07/17 02:19:02;;;;;;;;;;;;;;;19.84;80.76;99951.81;5054488;28;19916;-50
2022/07/17 02:21:27;;;;;;;;;;;;;;;19.60;83.37;99960.03;5054979;28;19916;-50
2022/07/17 02:23:52;;;;;;;;;;;;;;;19.77;83.70;99945.22;5054878;28;19970;-47
2022/07/17 02:26:18;;;;;;;;;;;;;;;19.83;84.12;99950.13;5055027;28;19916;-48
2022/07/17 02:28:43;;;;;;;;;;;;;;;19.77;83.69;99956.53;5054699;28;19920;-50
2022/07/17 02:31:08;;;;;;;;;;;;;;;19.30;84.96;99956.47;5053083;28;20018;-48
2022/07/17 02:33:34;;;;;;;;;;;;;;;19.34;86.03;99957.97;5053557;28;20011;-48
2022/07/17 02:36:01;;;;;;;;;;;;;;;19.29;87.06;99959.97;5054304;28;20570;-48
2022/07/17 02:38:26;;;;;;;;;;;;;;;19.09;87.39;99955.78;5054884;28;19971;-49
2022/07/17 02:40:51;;;;;;;;;;;;;;;18.85;88.10;99965.75;5054092;28;20464;-50
2022/07/17 02:43:16;;;;;;;;;;;;;;;18.90;87.60;99958.53;5054914;28;19927;-48
2022/07/17 02:45:42;;;;;;;;;;;;;;;19.19;86.77;99955.25;5053734;28;19916;-49
2022/07/17 02:48:07;;;;;;;;;;;;;;;18.91;88.13;99960.22;5054156;28;19916;-47
2022/07/17 02:50:32;;;;;;;;;;;;;;;19.23;86.24;99958.56;5053446;28;19950;-49
2022/07/17 02:52:57;;;;;;;;;;;;;;;19.16;86.80;99965.03;5053836;28;19935;-47
2022/07/17 02:55:23;;;;;;;;;;;;;;;19.06;87.42;99963.78;5052854;28;19935;-48
2022/07/17 02:57:48;;;;;;;;;;;;;;;19.26;86.84;99966.22;5054152;28;19916;-49
2022/07/17 03:00:15;;;;;;;;;;;;;;;19.39;86.03;99962.03;5053533;28;19974;-48
2022/07/17 03:02:40;;;;;;;;;;;;;;;19.33;84.87;99956.28;5052751;28;20389;-48
2022/07/17 03:05:06;;;;;;;;;;;;;;;19.10;85.08;99952.28;5051553;28;19916;-48
2022/07/17 03:07:31;;;;;;;;;;;;;;;19.20;86.37;99958.69;5054163;28;19918;-50
2022/07/17 03:09:56;;;;;;;;;;;;;;;19.03;86.81;99954.38;5053772;28;19943;-48
2022/07/17 03:12:21;;;;;;;;;;;;;;;18.90;87.38;99953.28;5053933;28;19923;-48
2022/07/17 03:14:47;;;;;;;;;;;;;;;19.00;87.01;99949.31;5054413;28;19912;-48
2022/07/17 03:17:12;;;;;;;;;;;;;;;18.79;87.52;99954.69;5054199;28;19916;-48
2022/07/17 03:19:37;;;;;;;;;;;;;;;18.98;87.41;99956.38;5052492;28;19928;-50
2022/07/17 03:22:02;;;;;;;;;;;;;;;19.17;86.94;99957.09;5053710;28;19921;-51
2022/07/17 03:24:28;;;;;;;;;;;;;;;18.84;86.85;99964.03;5053078;28;19927;-47
2022/07/17 03:26:53;;;;;;;;;;;;;;;18.63;89.55;99966.78;5053636;28;19932;-50
2022/07/17 03:29:18;;;;;;;;;;;;;;;18.62;89.52;99967.72;5053392;28;19927;-51
2022/07/17 03:31:46;;;;;;;;;;;;;;;18.43;90.19;99974.75;5053096;28;19920;-49
2022/07/17 03:34:12;;;;;;;;;;;;;;;18.85;88.83;99976.19;5053317;28;19918;-51
2022/07/17 03:36:37;;;;;;;;;;;;;;;18.79;89.08;99974.72;5053370;28;19931;-50
2022/07/17 03:39:02;;;;;;;;;;;;;;;18.77;88.94;99972.19;5051756;28;20163;-51
2022/07/17 03:41:28;;;;;;;;;;;;;;;18.54;88.54;99977.66;5053165;28;19944;-47
2022/07/17 03:43:53;;;;;;;;;;;;;;;18.16;90.84;99983.00;5052895;28;20019;-50
2022/07/17 03:46:18;;;;;;;;;;;;;;;18.31;92.16;99981.41;5053153;28;19916;-47
2022/07/17 03:48:44;;;;;;;;;;;;;;;18.09;91.45;99977.22;5052847;28;20002;-49
2022/07/17 03:51:09;;;;;;;;;;;;;;;18.09;91.92;99981.59;5052451;28;20049;-51
2022/07/17 03:53:34;;;;;;;;;;;;;;;18.57;90.38;99977.53;5053083;28;20003;-48
2022/07/17 03:55:59;;;;;;;;;;;;;;;18.77;90.46;99984.38;5053107;28;19916;-48
2022/07/17 03:58:25;;;;;;;;;;;;;;;18.69;90.61;99976.91;5053595;28;20309;-47
2022/07/17 04:00:50;;;;;;;;;;;;;;;18.51;91.74;99993.47;5051658;28;19961;-51
2022/07/17 04:03:15;;;;;;;;;;;;;;;18.35;92.78;99989.00;5053187;28;19921;-49
2022/07/17 04:05:40;;;;;;;;;;;;;;;18.79;91.46;99982.53;5052612;28;20015;-52
2022/07/17 04:08:05;;;;;;;;;;;;;;;18.48;92.21;99993.63;5053436;28;19917;-49
2022/07/17 04:10:31;;;;;;;;;;;;;;;18.27;95.39;99996.38;5052457;28;19921;-47
2022/07/17 04:12:56;;;;;;;;;;;;;;;18.23;96.89;99994.81;5053343;28;20433;-48
2022/07/17 04:18:05;;;;;;;;;;;;;;;18.52;94.69;99995.16;5052877;28;19923;-50
2022/07/17 04:20:30;;;;;;;;;;;;;;;18.76;94.23;99998.34;5053164;28;20030;-50
2022/07/17 04:22:57;;;;;;;;;;;;;;;18.77;92.79;99995.69;5053190;28;20369;-49
2022/07/17 04:25:22;;;;;;;;;;;;;;;19.04;91.61;99994.34;5053389;28;20425;-49
2022/07/17 04:27:48;;;;;;;;;;;;;;;19.17;93.23;99996.25;5053254;28;19916;-51
2022/07/17 04:30:13;;;;;;;;;;;;;;;19.53;91.85;99997.88;5052946;28;19920;-47
2022/07/17 04:32:38;;;;;;;;;;;;;;;19.56;91.73;100000.31;5052804;28;19916;-51
2022/07/17 04:35:03;;;;;;;;;;;;;;;19.53;91.05;100000.50;5053501;28;19921;-50
2022/07/17 04:37:29;;;;;;;;;;;;;;;19.51;90.61;100004.13;5056913;28;20381;-50
2022/07/17 04:39:54;;;;;;;;;;;;;;;19.51;91.32;100004.94;5056728;28;20423;-48
2022/07/17 04:42:19;;;;;;;;;;;;;;;19.61;91.82;100006.16;5056330;28;20884;-49
2022/07/17 04:44:44;;;;;;;;;;;;;;;19.40;92.87;99999.44;5056428;28;19927;-50
2022/07/17 04:47:09;;;;;;;;;;;;;;;19.68;89.67;99987.53;5056955;28;19920;-51
2022/07/17 04:49:35;;;;;;;;;;;;;;;19.86;91.97;99986.56;5056622;28;20373;-48
2022/07/17 04:52:00;;;;;;;;;;;;;;;20.17;91.06;99979.63;5055762;28;19923;-47
2022/07/17 04:54:25;;;;;;;;;;;;;;;20.14;91.58;99970.19;5056421;28;19927;-49
2022/07/17 04:56:51;;;;;;;;;;;;;;;20.02;91.77;99973.47;5056826;28;19963;-48
2022/07/17 04:59:16;;;;;;;;;;;;;;;20.23;89.85;99963.56;5056579;28;20031;-48
2022/07/17 05:01:41;;;;;;;;;;;;;;;20.60;88.37;99961.53;5056913;28;19999;-49
2022/07/17 05:04:06;;;;;;;;;;;;;;;20.40;88.52;99966.09;5056950;28;19917;-49
2022/07/17 05:06:31;;;;;;;;;;;;;;;20.65;89.96;99969.94;5056771;28;19952;-46
2022/07/17 05:08:57;;;;;;;;;;;;;;;19.82;94.97;99983.28;5055871;28;20381;-51
2022/07/17 05:11:22;;;;;;;;;;;;;;;21.19;91.05;99972.84;5058130;28;19947;-50
2022/07/17 05:13:47;;;;;;;;;;;;;;;21.57;89.24;99976.69;5057230;28;19955;-48
2022/07/17 05:16:12;;;;;;;;;;;;;;;21.80;88.25;99978.72;5057569;28;19933;-51
2022/07/17 05:18:38;;;;;;;;;;;;;;;21.80;87.24;99986.56;5056903;28;19917;-51
2022/07/17 05:21:03;;;;;;;;;;;;;;;21.85;86.20;99987.16;5058036;28;19928;-50
2022/07/17 05:23:28;;;;;;;;;;;;;;;22.17;83.15;99993.88;5056523;28;19924;-50
2022/07/17 05:25:53;;;;;;;;;;;;;;;22.17;83.16;99999.13;5057226;28;20098;-51
2022/07/17 05:28:19;;;;;;;;;;;;;;;21.82;83.66;99999.59;5057345;28;19979;-48
2022/07/17 05:30:44;;;;;;;;;;;;;;;22.12;81.37;100005.53;5056448;28;19917;-50
2022/07/17 05:33:09;;;;;;;;;;;;;;;22.02;82.51;100009.69;5057290;28;19916;-47
2022/07/17 05:35:34;;;;;;;;;;;;;;;22.40;84.13;100006.41;5057067;28;20010;-51
2022/07/17 05:38:00;;;;;;;;;;;;;;;22.59;83.28;100005.22;5056330;28;20348;-49
2022/07/17 05:40:25;;;;;;;;;;;;;;;21.58;81.37;100023.78;5056493;28;19978;-48
2022/07/17 05:42:51;;;;;;;;;;;;;;;21.86;83.28;100006.34;5056544;28;19924;-51
2022/07/17 05:45:16;;;;;;;;;;;;;;;22.57;80.71;100007.09;5056396;28;19928;-49
2022/07/17 05:47:41;;;;;;;;;;;;;;;23.03;78.32;100004.88;5055091;28;19917;-51
2022/07/17 05:50:06;;;;;;;;;;;;;;;23.11;78.34;100001.75;5055413;28;19917;-50
2022/07/17 05:52:32;;;;;;;;;;;;;;;23.42;79.38;99991.75;5055848;28;19916;-49
2022/07/17 05:54:57;;;;;;;;;;;;;;;23.42;76.23;99989.09;5056420;28;19916;-49
2022/07/17 05:57:22;;;;;;;;;;;;;;;23.57;77.14;99988.03;5055956;28;19927;-51
2022/07/17 05:59:47;;;;;;;;;;;;;;;23.00;80.05;99996.38;5054870;28;19916;-51
2022/07/17 06:02:12;;;;;;;;;;;;;;;23.46;77.77;99985.31;5056184;28;19993;-49
2022/07/17 06:04:38;;;;;;;;;;;;;;;22.76;74.00;99978.66;5055556;28;19916;-50
2022/07/17 06:07:03;;;;;;;;;;;;;;;23.66;75.11;99971.63;5053881;28;19969;-51
2022/07/17 06:09:28;;;;;;;;;;;;;;;24.12;70.83;99968.31;5055059;28;20354;-49
2022/07/17 06:11:54;;;;;;;;;;;;;;;23.97;71.66;99974.69;5055956;28;19952;-51
2022/07/17 06:14:19;;;;;;;;;;;;;;;24.49;73.83;99970.91;5055680;28;20686;-49
2022/07/17 06:16:44;;;;;;;;;;;;;;;24.83;72.84;99976.28;5055342;28;19952;-48
2022/07/17 06:19:09;;;;;;;;;;;;;;;23.75;73.56;99971.00;5054953;28;19940;-48
2022/07/17 06:21:34;;;;;;;;;;;;;;;24.26;72.28;99967.31;5055183;28;20007;-49
2022/07/17 06:24:00;;;;;;;;;;;;;;;24.79;70.92;99973.06;5055588;28;19920;-51
2022/07/17 06:26:25;;;;;;;;;;;;;;;25.21;71.11;99969.91;5055520;28;20043;-48
2022/07/17 06:28:51;;;;;;;;;;;;;;;25.18;68.99;99978.88;5054514;28;20058;-51
2022/07/17 06:31:16;;;;;;;;;;;;;;;25.11;65.66;99982.06;5055178;28;20007;-50
2022/07/17 06:33:41;;;;;;;;;;;;;;;25.26;64.59;99978.28;5055033;28;19969;-51
2022/07/17 06:36:06;;;;;;;;;;;;;;;24.80;66.08;99985.25;5054617;28;19916;-47
2022/07/17 06:38:33;;;;;;;;;;;;;;;24.81;61.58;99988.72;5055216;28;20011;-48
2022/07/17 06:40:58;;;;;;;;;;;;;;;24.81;61.08;99988.72;5054435;28;20002;-52
2022/07/17 06:43:23;;;;;;;;;;;;;;;24.89;60.73;99994.25;5055067;28;19928;-48
2022/07/17 06:45:51;;;;;;;;;;;;;;;25.90;56.31;99995.31;5054800;28;19917;-51
2022/07/17 06:48:16;;;;;;;;;;;;;;;25.07;56.42;100001.72;5054749;28;20054;-48
2022/07/17 06:50:41;;;;;;;;;;;;;;;25.23;56.49;99999.63;5054020;28;19966;-49
2022/07/17 06:53:07;;;;;;;;;;;;;;;24.68;54.71;100002.00;5054710;28;20399;-49
2022/07/17 06:55:32;;;;;;;;;;;;;;;25.42;55.40;99997.22;5054967;28;19916;-48
2022/07/17 06:57:57;;;;;;;;;;;;;;;25.43;52.41;100003.31;5054315;28;20598;-48
2022/07/17 07:00:22;;;;;;;;;;;;;;;24.72;51.46;99997.31;5053705;28;19920;-50
2022/07/17 07:02:48;;;;;;;;;;;;;;;24.64;56.16;99995.28;5054328;28;19921;-50
2022/07/17 07:05:13;;;;;;;;;;;;;;;24.37;62.46;100001.59;5052462;28;19921;-50
2022/07/17 07:07:38;;;;;;;;;;;;;;;25.32;55.70;99998.91;5054731;28;19923;-52
2022/07/17 07:10:03;;;;;;;;;;;;;;;25.41;54.07;100002.63;5053746;28;20578;-52
2022/07/17 07:12:30;;;;;;;;;;;;;;;26.45;51.36;99999.56;5053299;28;20727;-50
2022/07/17 07:14:55;;;;;;;;;;;;;;;26.51;51.30;100019.38;5054070;28;19917;-50
2022/07/17 07:17:20;;;;;;;;;;;;;;;25.65;62.37;100034.97;5054146;28;19922;-49
2022/07/17 07:19:46;;;;;;;;;;;;;;;25.03;64.19;100023.03;5054006;28;19916;-51
2022/07/17 07:22:11;;;;;;;;;;;;;;;25.60;70.73;100025.75;5054572;28;19958;-49
2022/07/17 07:24:36;;;;;;;;;;;;;;;26.07;63.39;100008.00;5054114;28;19966;-49
2022/07/17 07:27:01;;;;;;;;;;;;;;;26.13;61.96;100010.13;5054386;28;19955;-49
2022/07/17 07:29:27;;;;;;;;;;;;;;;26.10;61.87;100013.00;5052896;28;19916;-51
2022/07/17 07:31:52;;;;;;;;;;;;;;;27.37;58.58;99996.31;5052823;28;19916;-50
2022/07/17 07:34:17;;;;;;;;;;;;;;;27.69;52.48;99985.56;5053799;28;20003;-50
2022/07/17 07:36:42;;;;;;;;;;;;;;;26.16;59.89;99986.13;5054357;28;19939;-49
2022/07/17 07:39:08;;;;;;;;;;;;;;;27.11;54.35;99972.06;5053237;28;20089;-51
2022/07/17 07:41:33;;;;;;;;;;;;;;;27.93;50.98;99966.69;5053936;28;19920;-51
2022/07/17 07:43:58;;;;;;;;;;;;;;;27.66;47.72;99953.22;5053064;28;19986;-51
2022/07/17 07:46:23;;;;;;;;;;;;;;;28.24;47.76;99950.69;5054192;28;19934;-49
2022/07/17 07:48:49;;;;;;;;;;;;;;;28.35;48.67;99957.66;5052867;28;19917;-52
2022/07/17 07:51:14;;;;;;;;;;;;;;;28.03;45.48;99947.31;5053273;28;19962;-52
2022/07/17 07:53:39;;;;;;;;;;;;;;;28.61;43.39;99963.25;5053480;28;19923;-52
2022/07/17 07:56:04;;;;;;;;;;;;;;;27.30;45.64;99966.91;5053556;28;19916;-51
2022/07/17 07:58:30;;;;;;;;;;;;;;;27.75;45.47;99965.66;5052958;28;21205;-53
2022/07/17 08:00:55;;;;;;;;;;;;;;;27.51;44.99;99968.66;5052809;28;20937;-51
2022/07/17 08:03:20;;;;;;;;;;;;;;;28.41;42.38;99972.16;5053288;28;20359;-52
2022/07/17 08:05:45;;;;;;;;;;;;;;;28.84;41.62;99962.94;5051600;28;20109;-53
2022/07/17 08:08:11;;;;;;;;;;;;;;;26.90;43.53;99969.47;5053260;28;20238;-52
2022/07/17 08:10:36;;;;;;;;;;;;;;;27.80;45.10;99963.41;5051705;28;19924;-53
2022/07/17 08:13:01;;;;;;;;;;;;;;;27.79;42.95;99953.81;5053185;28;19916;-53
2022/07/17 08:15:26;;;;;;;;;;;;;;;29.25;40.90;99950.25;5053156;28;19916;-50
2022/07/17 08:17:52;;;;;;;;;;;;;;;29.42;40.51;99952.13;5053576;28;19979;-51
2022/07/17 08:20:17;;;;;;;;;;;;;;;29.38;40.58;99961.38;5052567;28;19920;-53
2022/07/17 08:22:43;;;;;;;;;;;;;;;28.66;40.42;99965.47;5035101;28;19924;-54
2022/07/17 08:25:09;;;;;;;;;;;;;;;28.10;41.93;99966.97;5052890;28;19912;-53
2022/07/17 08:27:35;;;;;;;;;;;;;;;29.99;39.22;99975.84;5053124;28;19924;-53
2022/07/17 08:30:01;;;;;;;;;;;;;;;27.95;43.65;99995.69;5052417;28;20050;-52
2022/07/17 08:32:26;;;;;;;;;;;;;;;29.78;38.59;99984.94;5053304;28;19926;-53
2022/07/17 08:34:51;;;;;;;;;;;;;;;29.90;38.88;99987.38;5052521;28;19920;-54
2022/07/17 08:37:17;;;;;;;;;;;;;;;29.07;36.57;99990.78;5053159;28;19916;-53
2022/07/17 08:39:42;;;;;;;;;;;;;;;28.75;39.56;99996.44;5051972;28;20083;-52
2022/07/17 08:42:07;;;;;;;;;;;;;;;28.24;40.67;100005.50;5053232;28;19923;-51
2022/07/17 08:44:32;;;;;;;;;;;;;;;28.78;38.34;99997.00;5052441;28;19917;-54
2022/07/17 08:46:58;;;;;;;;;;;;;;;29.34;37.58;100002.47;5053182;28;19920;-51
2022/07/17 08:49:23;;;;;;;;;;;;;;;30.08;36.82;100003.34;5050563;28;19951;-50
2022/07/17 08:51:48;;;;;;;;;;;;;;;29.49;38.00;100011.63;5051746;28;20342;-53
2022/07/17 08:54:14;;;;;;;;;;;;;;;29.05;40.08;100011.28;5051433;28;20397;-53
2022/07/17 08:56:39;;;;;;;;;;;;;;;30.29;36.51;100009.25;5053354;28;19916;-52
2022/07/17 08:59:04;;;;;;;;;;;;;;;29.59;36.58;100017.72;5051698;28;19921;-52
2022/07/17 09:01:29;;;;;;;;;;;;;;;29.19;41.98;100018.00;5052691;28;19916;-52
2022/07/17 09:03:56;;;;;;;;;;;;;;;28.71;42.84;100030.31;5051568;28;20023;-53
2022/07/17 09:06:21;;;;;;;;;;;;;;;29.75;40.99;100027.72;5051491;28;20490;-53
2022/07/17 09:08:46;;;;;;;;;;;;;;;29.49;41.18;100030.19;5052667;28;19916;-52
2022/07/17 09:11:11;;;;;;;;;;;;;;;30.22;39.34;100024.06;5051952;28;19917;-54
2022/07/17 09:13:37;;;;;;;;;;;;;;;29.54;40.00;100027.94;5052291;28;19916;-53
2022/07/17 09:16:05;;;;;;;;;;;;;;;30.22;39.19;100016.09;5053300;28;20011;-53
2022/07/17 09:18:30;;;;;;;;;;;;;;;28.88;39.34;100018.19;5052210;28;20808;-53
2022/07/17 09:20:56;;;;;;;;;;;;;;;30.03;38.61;100020.56;5052150;28;19912;-54
2022/07/17 09:23:22;;;;;;;;;;;;;;;30.96;34.76;100006.16;5054542;28;19926;-53
2022/07/17 09:25:48;;;;;;;;;;;;;;;31.38;35.94;100006.19;5055914;28;20316;-54
2022/07/17 09:28:14;;;;;;;;;;;;;;;30.88;37.22;100011.41;5055900;28;19920;-55
2022/07/17 09:30:40;;;;;;;;;;;;;;;30.51;38.24;100001.78;5055525;28;20352;-54
2022/07/17 09:33:07;;;;;;;;;;;;;;;30.83;37.05;100012.66;5055962;28;19920;-52
2022/07/17 09:35:33;;;;;;;;;;;;;;;27.92;43.48;100030.38;5055883;28;19917;-53
2022/07/17 09:37:58;;;;;;;;;;;;;;;28.08;44.97;100024.56;5054487;28;19943;-52
2022/07/17 09:43:08;;;;;;;;;;;;;;;29.46;38.19;100005.75;5055335;28;19966;-54
2022/07/17 09:45:33;;;;;;;;;;;;;;;29.49;38.86;100006.31;5054469;28;19978;-52
2022/07/17 09:47:59;;;;;;;;;;;;;;;30.52;36.42;100000.78;5055787;28;20772;-52
2022/07/17 09:50:24;;;;;;;;;;;;;;;31.34;36.37;100004.03;5053726;28;20285;-54
2022/07/17 09:52:49;;;;;;;;;;;;;;;30.91;35.80;99997.81;5054866;28;20434;-54
2022/07/17 09:55:15;;;;;;;;;;;;;;;29.88;39.68;100003.47;5054369;28;19916;-52
2022/07/17 09:57:41;;;;;;;;;;;;;;;29.98;38.20;99996.28;5053968;28;19947;-53
2022/07/17 10:00:11;;;;;;;;;;;;;;;32.19;35.54;99986.22;5054006;28;20888;-54
2022/07/17 10:02:37;;;;;;;;;;;;;;;32.13;33.70;99986.84;5056109;28;19921;-52
2022/07/17 10:05:02;;;;;;;;;;;;;;;31.33;34.42;99986.41;5055399;28;20033;-53
2022/07/17 10:07:27;;;;;;;;;;;;;;;32.03;33.69;99981.69;5055140;28;20038;-55
2022/07/17 10:09:53;;;;;;;;;;;;;;;31.95;35.38;99989.63;5053518;28;19966;-54
2022/07/17 10:12:18;;;;;;;;;;;;;;;31.39;35.35;99985.75;5055716;28;20373;-54
2022/07/17 10:14:45;;;;;;;;;;;;;;;31.77;35.89;99994.25;5053972;28;19920;-54
2022/07/17 10:17:13;;;;;;;;;;;;;;;30.17;35.49;99989.16;5053819;28;20270;-54
2022/07/17 10:19:48;;;;;;;;;;;;;;;31.86;34.34;99987.94;5054200;28;20285;-55
2022/07/17 10:22:14;;;;;;;;;;;;;;;31.30;33.52;99986.72;5055037;28;19924;-53
2022/07/17 10:24:46;;;;;;;;;;;;;;;30.53;34.08;99994.50;5054914;28;19939;-53
2022/07/17 10:27:22;;;;;;;;;;;;;;;32.54;33.71;99992.25;5055299;28;20747;-53
2022/07/17 10:29:47;;;;;;;;;;;;;;;29.96;34.61;99998.25;5054202;28;19917;-51
2022/07/17 10:32:17;;;;;;;;;;;;;;;30.70;32.66;99990.97;5053246;28;19916;-53
2022/07/17 10:34:43;;;;;;;;;;;;;;;32.83;31.43;99991.72;5054786;28;19916;-54
2022/07/17 10:37:22;;;;;;;;;;;;;;;32.19;30.79;99985.38;5054937;28;19917;-54
2022/07/17 10:39:53;;;;;;;;;;;;;;;31.99;30.95;99977.69;5053850;28;19923;-53
2022/07/17 10:42:18;;;;;;;;;;;;;;;32.07;32.91;99991.03;5053968;28;19924;-52
2022/07/17 10:44:43;;;;;;;;;;;;;;;32.27;32.56;99990.69;5052812;28;19931;-55
2022/07/17 10:47:08;;;;;;;;;;;;;;;31.08;32.83;99986.25;5054570;28;20384;-55
2022/07/17 10:49:34;;;;;;;;;;;;;;;31.63;32.69;99987.72;5053892;28;20265;-54
2022/07/17 10:52:00;;;;;;;;;;;;;;;31.54;33.47;99994.81;5054774;28;19917;-55
2022/07/17 10:54:32;;;;;;;;;;;;;;;32.63;32.35;99993.09;5054603;28;20350;-55
2022/07/17 10:56:57;;;;;;;;;;;;;;;32.02;30.51;99987.16;5054058;28;20353;-55
2022/07/17 10:59:22;;;;;;;;;;;;;;;32.65;31.07;99991.09;5052229;28;19939;-55
2022/07/17 11:01:55;;;;;;;;;;;;;;;32.54;30.50;99989.56;5052743;28;19926;-56
2022/07/17 11:04:20;;;;;;;;;;;;;;;31.49;29.86;99986.50;5054389;28;19920;-55
2022/07/17 11:06:45;;;;;;;;;;;;;;;32.15;30.11;99989.38;5054697;28;20352;-54
2022/07/17 11:09:11;;;;;;;;;;;;;;;32.15;29.47;99994.69;5053976;28;20301;-55
2022/07/17 11:11:36;;;;;;;;;;;;;;;33.66;28.48;99985.16;5053999;28;20003;-55
2022/07/17 11:14:08;;;;;;;;;;;;;;;34.04;27.93;99977.25;5053536;28;20651;-54
2022/07/17 11:16:34;;;;;;;;;;;;;;;34.25;26.93;99970.47;5054438;28;19937;-55
2022/07/17 11:18:59;;;;;;;;;;;;;;;34.43;26.88;99973.66;5036045;28;20662;-55
2022/07/17 11:21:24;;;;;;;;;;;;;;;34.97;26.92;99976.16;5055867;28;19916;-55
2022/07/17 11:23:51;;;;;;;;;;;;;;;35.29;25.72;99970.66;5052046;28;20365;-56
2022/07/17 11:26:16;;;;;;;;;;;;;;;34.61;25.74;99969.81;5052573;28;19916;-56
2022/07/17 11:28:43;;;;;;;;;;;;;;;34.32;27.94;99976.75;5054308;28;20895;-56
2022/07/17 11:31:15;;;;;;;;;;;;;;;32.82;28.66;99979.41;5053689;28;19928;-55
2022/07/17 11:33:45;;;;;;;;;;;;;;;32.38;28.07;99971.72;5053963;28;19917;-55
2022/07/17 11:36:11;;;;;;;;;;;;;;;32.30;29.66;99982.41;5054055;28;20119;-55
2022/07/17 11:38:36;;;;;;;;;;;;;;;33.47;28.72;99972.22;5053896;28;19924;-55
2022/07/17 11:41:02;;;;;;;;;;;;;;;34.30;28.57;99973.41;5052886;28;20374;-56
2022/07/17 11:43:27;;;;;;;;;;;;;;;34.26;27.09;99972.09;5053122;28;19920;-55
2022/07/17 11:45:52;;;;;;;;;;;;;;;34.83;27.58;99968.97;5053062;28;19928;-55
2022/07/17 11:48:17;;;;;;;;;;;;;;;34.31;24.49;99956.38;5053921;28;19916;-55
2022/07/17 11:50:52;;;;;;;;;;;;;;;34.67;26.85;99969.13;5052798;28;19924;-56
2022/07/17 11:53:17;;;;;;;;;;;;;;;35.27;24.30;99965.50;5051842;28;19916;-56
2022/07/17 11:55:43;;;;;;;;;;;;;;;35.37;25.33;99965.19;5053450;28;19916;-56
2022/07/17 11:58:08;;;;;;;;;;;;;;;36.98;25.13;99963.88;5053663;28;19916;-56
2022/07/17 12:00:34;;;;;;;;;;;;;;;33.83;26.40;99961.03;5053356;28;19924;-55
2022/07/17 12:03:03;;;;;;;;;;;;;;;34.60;27.82;99970.81;5052091;28;20397;-56
2022/07/17 12:05:29;;;;;;;;;;;;;;;34.96;25.66;99958.44;5054093;28;20375;-56
2022/07/17 12:07:54;;;;;;;;;;;;;;;34.49;26.70;99967.59;5053740;28;19930;-56
2022/07/17 12:10:21;;;;;;;;;;;;;;;34.84;26.14;99961.78;5051634;28;20673;-55
2022/07/17 12:12:53;;;;;;;;;;;;;;;33.48;27.66;99977.41;5053661;28;19916;-55
2022/07/17 12:15:19;;;;;;;;;;;;;;;34.36;25.08;99967.38;5053678;28;19917;-56
2022/07/17 12:17:44;;;;;;;;;;;;;;;35.94;25.31;99968.97;5053420;28;19920;-56
2022/07/17 12:20:09;;;;;;;;;;;;;;;35.23;23.74;99955.34;5053189;28;19923;-56
2022/07/17 12:22:47;;;;;;;;;;;;;;;32.48;25.06;99956.41;5053158;28;19930;-56
2022/07/17 12:25:25;;;;;;;;;;;;;;;33.59;25.19;99964.69;5053581;28;20393;-56
2022/07/17 12:27:50;;;;;;;;;;;;;;;35.53;22.47;99956.13;5053382;28;19974;-56
2022/07/17 12:30:15;;;;;;;;;;;;;;;36.68;23.64;99957.06;5052898;28;20504;-56
2022/07/17 12:32:41;;;;;;;;;;;;;;;36.82;22.66;99948.09;5052995;28;19917;-56
2022/07/17 12:35:06;;;;;;;;;;;;;;;37.09;24.06;99948.25;5053435;28;19912;-56
2022/07/17 12:37:32;;;;;;;;;;;;;;;37.34;24.89;99946.72;5053197;28;19917;-56
2022/07/17 12:39:57;;;;;;;;;;;;;;;36.76;25.99;99952.38;5053150;28;19922;-57
2022/07/17 12:42:22;;;;;;;;;;;;;;;36.44;25.70;99946.53;5053505;28;19920;-57